sensor_id;sensor_type;location;lat;lon;timestamp;P1;durP1;ratioP1;P2;durP2;ratioP2
76548;SDS011;65391;52.068;4.542;2023-04-25T00:01:32;13;;;3;;
76548;SDS011;65391;52.068;4.542;2023-04-25T00:03:57;13;;;3;;
76548;SDS011;65391;52.068;4.542;2023-04-25T00:06:22;13.6;;;3.1;;
76548;SDS011;65391;52.068;4.542;2023-04-25T00:08:47;13.6;;;3.1;;
76548;SDS011;65391;52.068;4.542;2023-04-25T00:11:12;13.6;;;3.1;;
76548;SDS011;65391;52.068;4.542;2023-04-25T00:13:37;13.6;;;3.1;;
76548;SDS011;65391;52.068;4.542;2023-04-25T00:16:02;14.7;;;3.3;;
76548;SDS011;65391;52.068;4.542;2023-04-25T00:18:27;14.7;;;3.3;;
76548;SDS011;65391;52.068;4.542;2023-04-25T00:20:52;14.7;;;3.3;;
76548;SDS011;65391;52.068;4.542;2023-04-25T00:23:17;14.7;;;3.3;;
76548;SDS011;65391;52.068;4.542;2023-04-25T00:25:42;10.3;;;2.9;;
76548;SDS011;65391;52.068;4.542;2023-04-25T00:28:07;10.3;;;2.9;;
76548;SDS011;65391;52.068;4.542;2023-04-25T00:30:32;10.3;;;2.9;;
76548;SDS011;65391;52.068;4.542;2023-04-25T00:32:57;10.3;;;2.9;;
76548;SDS011;65391;52.068;4.542;2023-04-25T00:35:22;10.3;;;2.9;;
76548;SDS011;65391;52.068;4.542;2023-04-25T00:37:47;14.5;;;3.9;;
76548;SDS011;65391;52.068;4.542;2023-04-25T00:40:12;14.5;;;3.9;;
76548;SDS011;65391;52.068;4.542;2023-04-25T00:42:37;14.5;;;3.9;;
76548;SDS011;65391;52.068;4.542;2023-04-25T00:45:03;14.5;;;3.9;;
76548;SDS011;65391;52.068;4.542;2023-04-25T00:47:27;15.3;;;3.1;;
76548;SDS011;65391;52.068;4.542;2023-04-25T00:49:53;15.3;;;3.1;;
76548;SDS011;65391;52.068;4.542;2023-04-25T00:52:17;15.3;;;3.1;;
76548;SDS011;65391;52.068;4.542;2023-04-25T00:54:42;15.3;;;3.1;;
76548;SDS011;65391;52.068;4.542;2023-04-25T00:57:07;13.7;;;2.5;;
76548;SDS011;65391;52.068;4.542;2023-04-25T00:59:32;13.7;;;2.5;;
76548;SDS011;65391;52.068;4.542;2023-04-25T01:01:57;13.7;;;2.5;;
76548;SDS011;65391;52.068;4.542;2023-04-25T01:04:22;13.7;;;2.5;;
76548;SDS011;65391;52.068;4.542;2023-04-25T01:06:47;13.6;;;2.9;;
76548;SDS011;65391;52.068;4.542;2023-04-25T01:09:12;13.6;;;2.9;;
76548;SDS011;65391;52.068;4.542;2023-04-25T01:11:37;13.6;;;2.9;;
76548;SDS011;65391;52.068;4.542;2023-04-25T01:14:02;13.6;;;2.9;;
76548;SDS011;65391;52.068;4.542;2023-04-25T01:16:27;10.9;;;2.6;;
76548;SDS011;65391;52.068;4.542;2023-04-25T01:18:52;10.9;;;2.6;;
76548;SDS011;65391;52.068;4.542;2023-04-25T01:21:17;10.9;;;2.6;;
76548;SDS011;65391;52.068;4.542;2023-04-25T01:23:42;10.9;;;2.6;;
76548;SDS011;65391;52.068;4.542;2023-04-25T01:26:07;15.8;;;3.3;;
76548;SDS011;65391;52.068;4.542;2023-04-25T01:28:32;15.8;;;3.3;;
76548;SDS011;65391;52.068;4.542;2023-04-25T01:30:57;15.8;;;3.3;;
76548;SDS011;65391;52.068;4.542;2023-04-25T01:33:22;15.8;;;3.3;;
76548;SDS011;65391;52.068;4.542;2023-04-25T01:35:47;16.1;;;3.8;;
76548;SDS011;65391;52.068;4.542;2023-04-25T01:38:13;16.1;;;3.8;;
76548;SDS011;65391;52.068;4.542;2023-04-25T01:40:37;16.1;;;3.8;;
76548;SDS011;65391;52.068;4.542;2023-04-25T01:43:02;16.1;;;3.8;;
76548;SDS011;65391;52.068;4.542;2023-04-25T01:45:27;16.1;;;3.8;;
76548;SDS011;65391;52.068;4.542;2023-04-25T01:47:52;10.3;;;2;;
76548;SDS011;65391;52.068;4.542;2023-04-25T01:50:18;10.3;;;2;;
76548;SDS011;65391;52.068;4.542;2023-04-25T01:52:42;10.3;;;2;;
76548;SDS011;65391;52.068;4.542;2023-04-25T01:55:08;10.3;;;2;;
76548;SDS011;65391;52.068;4.542;2023-04-25T01:57:32;10.1;;;2.6;;
76548;SDS011;65391;52.068;4.542;2023-04-25T01:59:59;10.1;;;2.6;;
76548;SDS011;65391;52.068;4.542;2023-04-25T02:02:22;10.1;;;2.6;;
76548;SDS011;65391;52.068;4.542;2023-04-25T02:04:47;10.1;;;2.6;;
76548;SDS011;65391;52.068;4.542;2023-04-25T02:07:12;10.2;;;2.3;;
76548;SDS011;65391;52.068;4.542;2023-04-25T02:09:37;10.2;;;2.3;;
76548;SDS011;65391;52.068;4.542;2023-04-25T02:12:02;10.2;;;2.3;;
76548;SDS011;65391;52.068;4.542;2023-04-25T02:14:27;10.2;;;2.3;;
76548;SDS011;65391;52.068;4.542;2023-04-25T02:16:52;13.6;;;2.7;;
76548;SDS011;65391;52.068;4.542;2023-04-25T02:19:17;13.6;;;2.7;;
76548;SDS011;65391;52.068;4.542;2023-04-25T02:21:42;13.6;;;2.7;;
76548;SDS011;65391;52.068;4.542;2023-04-25T02:24:07;13.6;;;2.7;;
76548;SDS011;65391;52.068;4.542;2023-04-25T02:26:32;14.6;;;2.1;;
76548;SDS011;65391;52.068;4.542;2023-04-25T02:28:57;14.6;;;2.1;;
76548;SDS011;65391;52.068;4.542;2023-04-25T02:31:22;14.6;;;2.1;;
76548;SDS011;65391;52.068;4.542;2023-04-25T02:33:47;14.6;;;2.1;;
76548;SDS011;65391;52.068;4.542;2023-04-25T02:36:12;13.6;;;2.7;;
76548;SDS011;65391;52.068;4.542;2023-04-25T02:38:37;13.6;;;2.7;;
76548;SDS011;65391;52.068;4.542;2023-04-25T02:41:02;13.6;;;2.7;;
76548;SDS011;65391;52.068;4.542;2023-04-25T02:43:27;13.6;;;2.7;;
76548;SDS011;65391;52.068;4.542;2023-04-25T02:45:53;12.9;;;2;;
76548;SDS011;65391;52.068;4.542;2023-04-25T02:48:17;12.9;;;2;;
76548;SDS011;65391;52.068;4.542;2023-04-25T02:50:42;12.9;;;2;;
76548;SDS011;65391;52.068;4.542;2023-04-25T02:53:08;12.9;;;2;;
76548;SDS011;65391;52.068;4.542;2023-04-25T02:55:32;12.9;;;2;;
76548;SDS011;65391;52.068;4.542;2023-04-25T02:57:57;13.4;;;1.6;;
76548;SDS011;65391;52.068;4.542;2023-04-25T03:00:22;13.4;;;1.6;;
76548;SDS011;65391;52.068;4.542;2023-04-25T03:02:48;13.4;;;1.6;;
76548;SDS011;65391;52.068;4.542;2023-04-25T03:05:12;13.4;;;1.6;;
76548;SDS011;65391;52.068;4.542;2023-04-25T03:07:37;7.3;;;2.1;;
76548;SDS011;65391;52.068;4.542;2023-04-25T03:10:03;7.3;;;2.1;;
76548;SDS011;65391;52.068;4.542;2023-04-25T03:12:27;7.3;;;2.1;;
76548;SDS011;65391;52.068;4.542;2023-04-25T03:14:52;7.3;;;2.1;;
76548;SDS011;65391;52.068;4.542;2023-04-25T03:17:17;10.6;;;1.9;;
76548;SDS011;65391;52.068;4.542;2023-04-25T03:19:42;10.6;;;1.9;;
76548;SDS011;65391;52.068;4.542;2023-04-25T03:22:08;10.6;;;1.9;;
76548;SDS011;65391;52.068;4.542;2023-04-25T03:24:32;10.6;;;1.9;;
76548;SDS011;65391;52.068;4.542;2023-04-25T03:26:57;14.2;;;2.2;;
76548;SDS011;65391;52.068;4.542;2023-04-25T03:29:22;14.2;;;2.2;;
76548;SDS011;65391;52.068;4.542;2023-04-25T03:31:47;14.2;;;2.2;;
76548;SDS011;65391;52.068;4.542;2023-04-25T03:34:12;14.2;;;2.2;;
76548;SDS011;65391;52.068;4.542;2023-04-25T03:36:37;9.6;;;2.4;;
76548;SDS011;65391;52.068;4.542;2023-04-25T03:39:02;9.6;;;2.4;;
76548;SDS011;65391;52.068;4.542;2023-04-25T03:41:27;9.6;;;2.4;;
76548;SDS011;65391;52.068;4.542;2023-04-25T03:43:52;9.6;;;2.4;;
76548;SDS011;65391;52.068;4.542;2023-04-25T03:46:17;13.8;;;2.5;;
76548;SDS011;65391;52.068;4.542;2023-04-25T03:48:42;13.8;;;2.5;;
76548;SDS011;65391;52.068;4.542;2023-04-25T03:51:07;13.8;;;2.5;;
76548;SDS011;65391;52.068;4.542;2023-04-25T03:53:32;13.8;;;2.5;;
76548;SDS011;65391;52.068;4.542;2023-04-25T03:55:57;13.2;;;2.7;;
76548;SDS011;65391;52.068;4.542;2023-04-25T03:58:22;13.2;;;2.7;;
76548;SDS011;65391;52.068;4.542;2023-04-25T04:00:47;13.2;;;2.7;;
76548;SDS011;65391;52.068;4.542;2023-04-25T04:03:12;13.2;;;2.7;;
76548;SDS011;65391;52.068;4.542;2023-04-25T04:05:38;13.2;;;2.7;;
76548;SDS011;65391;52.068;4.542;2023-04-25T04:08:02;10.8;;;1.8;;
76548;SDS011;65391;52.068;4.542;2023-04-25T04:10:27;10.8;;;1.8;;
76548;SDS011;65391;52.068;4.542;2023-04-25T04:12:52;10.8;;;1.8;;
76548;SDS011;65391;52.068;4.542;2023-04-25T04:15:17;10.8;;;1.8;;
76548;SDS011;65391;52.068;4.542;2023-04-25T04:17:42;10.8;;;2.2;;
76548;SDS011;65391;52.068;4.542;2023-04-25T04:20:08;10.8;;;2.2;;
76548;SDS011;65391;52.068;4.542;2023-04-25T04:22:32;10.8;;;2.2;;
76548;SDS011;65391;52.068;4.542;2023-04-25T04:24:57;10.8;;;2.2;;
76548;SDS011;65391;52.068;4.542;2023-04-25T04:27:23;14.1;;;2.9;;
76548;SDS011;65391;52.068;4.542;2023-04-25T04:29:48;14.1;;;2.9;;
76548;SDS011;65391;52.068;4.542;2023-04-25T04:32:13;14.1;;;2.9;;
76548;SDS011;65391;52.068;4.542;2023-04-25T04:34:37;14.1;;;2.9;;
76548;SDS011;65391;52.068;4.542;2023-04-25T04:37:02;8.4;;;1.7;;
76548;SDS011;65391;52.068;4.542;2023-04-25T04:39:27;8.4;;;1.7;;
76548;SDS011;65391;52.068;4.542;2023-04-25T04:41:52;8.4;;;1.7;;
76548;SDS011;65391;52.068;4.542;2023-04-25T04:44:17;8.4;;;1.7;;
76548;SDS011;65391;52.068;4.542;2023-04-25T04:46:43;13;;;2.6;;
76548;SDS011;65391;52.068;4.542;2023-04-25T04:49:08;13;;;2.6;;
76548;SDS011;65391;52.068;4.542;2023-04-25T04:51:32;13;;;2.6;;
76548;SDS011;65391;52.068;4.542;2023-04-25T04:53:58;13;;;2.6;;
76548;SDS011;65391;52.068;4.542;2023-04-25T04:56:22;14;;;2.3;;
76548;SDS011;65391;52.068;4.542;2023-04-25T04:58:47;14;;;2.3;;
76548;SDS011;65391;52.068;4.542;2023-04-25T05:01:12;14;;;2.3;;
76548;SDS011;65391;52.068;4.542;2023-04-25T05:03:37;14;;;2.3;;
76548;SDS011;65391;52.068;4.542;2023-04-25T05:06:03;14;;;2.3;;
76548;SDS011;65391;52.068;4.542;2023-04-25T05:08:27;13.7;;;2.5;;
76548;SDS011;65391;52.068;4.542;2023-04-25T05:10:52;13.7;;;2.5;;
76548;SDS011;65391;52.068;4.542;2023-04-25T05:13:17;13.7;;;2.5;;
76548;SDS011;65391;52.068;4.542;2023-04-25T05:15:42;13.7;;;2.5;;
76548;SDS011;65391;52.068;4.542;2023-04-25T05:18:08;13.1;;;2.5;;
76548;SDS011;65391;52.068;4.542;2023-04-25T05:20:32;13.1;;;2.5;;
76548;SDS011;65391;52.068;4.542;2023-04-25T05:22:58;13.1;;;2.5;;
76548;SDS011;65391;52.068;4.542;2023-04-25T05:25:22;13.1;;;2.5;;
76548;SDS011;65391;52.068;4.542;2023-04-25T05:27:47;9.2;;;2.6;;
76548;SDS011;65391;52.068;4.542;2023-04-25T05:30:13;9.2;;;2.6;;
76548;SDS011;65391;52.068;4.542;2023-04-25T05:32:38;9.2;;;2.6;;
76548;SDS011;65391;52.068;4.542;2023-04-25T05:35:03;9.2;;;2.6;;
76548;SDS011;65391;52.068;4.542;2023-04-25T05:37:28;4.9;;;1.6;;
76548;SDS011;65391;52.068;4.542;2023-04-25T05:39:53;4.9;;;1.6;;
76548;SDS011;65391;52.068;4.542;2023-04-25T05:42:18;4.9;;;1.6;;
76548;SDS011;65391;52.068;4.542;2023-04-25T05:44:43;4.9;;;1.6;;
76548;SDS011;65391;52.068;4.542;2023-04-25T05:47:08;8.2;;;1.2;;
76548;SDS011;65391;52.068;4.542;2023-04-25T05:49:33;8.2;;;1.2;;
76548;SDS011;65391;52.068;4.542;2023-04-25T05:51:58;8.2;;;1.2;;
76548;SDS011;65391;52.068;4.542;2023-04-25T05:54:23;8.2;;;1.2;;
76548;SDS011;65391;52.068;4.542;2023-04-25T05:56:48;4.1;;;1.1;;
76548;SDS011;65391;52.068;4.542;2023-04-25T05:59:13;4.1;;;1.1;;
76548;SDS011;65391;52.068;4.542;2023-04-25T06:01:38;4.1;;;1.1;;
76548;SDS011;65391;52.068;4.542;2023-04-25T06:04:03;4.1;;;1.1;;
76548;SDS011;65391;52.068;4.542;2023-04-25T06:06:28;6.2;;;0.9;;
76548;SDS011;65391;52.068;4.542;2023-04-25T06:08:53;6.2;;;0.9;;
76548;SDS011;65391;52.068;4.542;2023-04-25T06:11:18;6.2;;;0.9;;
76548;SDS011;65391;52.068;4.542;2023-04-25T06:13:43;6.2;;;0.9;;
76548;SDS011;65391;52.068;4.542;2023-04-25T06:16:08;6.2;;;0.9;;
76548;SDS011;65391;52.068;4.542;2023-04-25T06:18:33;4.3;;;0.9;;
76548;SDS011;65391;52.068;4.542;2023-04-25T06:20:58;4.3;;;0.9;;
76548;SDS011;65391;52.068;4.542;2023-04-25T06:23:23;4.3;;;0.9;;
76548;SDS011;65391;52.068;4.542;2023-04-25T06:25:48;4.3;;;0.9;;
76548;SDS011;65391;52.068;4.542;2023-04-25T06:28:13;6.6;;;1.1;;
76548;SDS011;65391;52.068;4.542;2023-04-25T06:30:38;6.6;;;1.1;;
76548;SDS011;65391;52.068;4.542;2023-04-25T06:33:03;6.6;;;1.1;;
76548;SDS011;65391;52.068;4.542;2023-04-25T06:35:28;6.6;;;1.1;;
76548;SDS011;65391;52.068;4.542;2023-04-25T06:37:53;5.6;;;1;;
76548;SDS011;65391;52.068;4.542;2023-04-25T06:40:18;5.6;;;1;;
76548;SDS011;65391;52.068;4.542;2023-04-25T06:42:43;5.6;;;1;;
76548;SDS011;65391;52.068;4.542;2023-04-25T06:45:08;5.6;;;1;;
76548;SDS011;65391;52.068;4.542;2023-04-25T06:47:33;5.7;;;0.9;;
76548;SDS011;65391;52.068;4.542;2023-04-25T06:49:58;5.7;;;0.9;;
76548;SDS011;65391;52.068;4.542;2023-04-25T06:52:23;5.7;;;0.9;;
76548;SDS011;65391;52.068;4.542;2023-04-25T06:54:48;5.7;;;0.9;;
76548;SDS011;65391;52.068;4.542;2023-04-25T06:57:13;6.3;;;1;;
76548;SDS011;65391;52.068;4.542;2023-04-25T06:59:38;6.3;;;1;;
76548;SDS011;65391;52.068;4.542;2023-04-25T07:02:03;6.3;;;1;;
76548;SDS011;65391;52.068;4.542;2023-04-25T07:04:28;6.3;;;1;;
76548;SDS011;65391;52.068;4.542;2023-04-25T07:06:53;8;;;2.6;;
76548;SDS011;65391;52.068;4.542;2023-04-25T07:09:18;8;;;2.6;;
76548;SDS011;65391;52.068;4.542;2023-04-25T07:11:43;8;;;2.6;;
76548;SDS011;65391;52.068;4.542;2023-04-25T07:14:08;8;;;2.6;;
76548;SDS011;65391;52.068;4.542;2023-04-25T07:16:33;6.8;;;1.5;;
76548;SDS011;65391;52.068;4.542;2023-04-25T07:18:58;6.8;;;1.5;;
76548;SDS011;65391;52.068;4.542;2023-04-25T07:21:23;6.8;;;1.5;;
76548;SDS011;65391;52.068;4.542;2023-04-25T07:23:48;6.8;;;1.5;;
76548;SDS011;65391;52.068;4.542;2023-04-25T07:26:13;6.8;;;1.5;;
76548;SDS011;65391;52.068;4.542;2023-04-25T07:28:38;6.4;;;1;;
76548;SDS011;65391;52.068;4.542;2023-04-25T07:31:03;6.4;;;1;;
76548;SDS011;65391;52.068;4.542;2023-04-25T07:33:28;6.4;;;1;;
76548;SDS011;65391;52.068;4.542;2023-04-25T07:35:53;6.4;;;1;;
76548;SDS011;65391;52.068;4.542;2023-04-25T07:38:18;8.9;;;1.3;;
76548;SDS011;65391;52.068;4.542;2023-04-25T07:40:43;8.9;;;1.3;;
76548;SDS011;65391;52.068;4.542;2023-04-25T07:43:08;8.9;;;1.3;;
76548;SDS011;65391;52.068;4.542;2023-04-25T07:45:33;8.9;;;1.3;;
76548;SDS011;65391;52.068;4.542;2023-04-25T07:47:58;4.8;;;0.9;;
76548;SDS011;65391;52.068;4.542;2023-04-25T07:50:23;4.8;;;0.9;;
76548;SDS011;65391;52.068;4.542;2023-04-25T07:52:48;4.8;;;0.9;;
76548;SDS011;65391;52.068;4.542;2023-04-25T07:55:13;4.8;;;0.9;;
76548;SDS011;65391;52.068;4.542;2023-04-25T07:57:38;5.5;;;1.4;;
76548;SDS011;65391;52.068;4.542;2023-04-25T08:00:04;5.5;;;1.4;;
76548;SDS011;65391;52.068;4.542;2023-04-25T08:02:28;5.5;;;1.4;;
76548;SDS011;65391;52.068;4.542;2023-04-25T08:04:53;5.5;;;1.4;;
76548;SDS011;65391;52.068;4.542;2023-04-25T08:07:18;6.3;;;0.8;;
76548;SDS011;65391;52.068;4.542;2023-04-25T08:09:43;6.3;;;0.8;;
76548;SDS011;65391;52.068;4.542;2023-04-25T08:12:08;6.3;;;0.8;;
76548;SDS011;65391;52.068;4.542;2023-04-25T08:14:33;6.3;;;0.8;;
76548;SDS011;65391;52.068;4.542;2023-04-25T08:16:58;4.4;;;1.2;;
76548;SDS011;65391;52.068;4.542;2023-04-25T08:19:23;4.4;;;1.2;;
76548;SDS011;65391;52.068;4.542;2023-04-25T08:21:48;4.4;;;1.2;;
76548;SDS011;65391;52.068;4.542;2023-04-25T08:24:13;4.4;;;1.2;;
76548;SDS011;65391;52.068;4.542;2023-04-25T08:26:38;7.2;;;1;;
76548;SDS011;65391;52.068;4.542;2023-04-25T08:29:03;7.2;;;1;;
76548;SDS011;65391;52.068;4.542;2023-04-25T08:31:28;7.2;;;1;;
76548;SDS011;65391;52.068;4.542;2023-04-25T08:33:53;7.2;;;1;;
76548;SDS011;65391;52.068;4.542;2023-04-25T08:36:18;7.2;;;1;;
76548;SDS011;65391;52.068;4.542;2023-04-25T08:38:43;6.8;;;1.1;;
76548;SDS011;65391;52.068;4.542;2023-04-25T08:41:08;6.8;;;1.1;;
76548;SDS011;65391;52.068;4.542;2023-04-25T08:43:33;6.8;;;1.1;;
76548;SDS011;65391;52.068;4.542;2023-04-25T08:45:58;6.8;;;1.1;;
76548;SDS011;65391;52.068;4.542;2023-04-25T08:48:23;3;;;1.1;;
76548;SDS011;65391;52.068;4.542;2023-04-25T08:50:49;3;;;1.1;;
76548;SDS011;65391;52.068;4.542;2023-04-25T08:53:13;3;;;1.1;;
76548;SDS011;65391;52.068;4.542;2023-04-25T08:55:38;3;;;1.1;;
76548;SDS011;65391;52.068;4.542;2023-04-25T08:58:03;5.5;;;0.8;;
76548;SDS011;65391;52.068;4.542;2023-04-25T09:00:29;5.5;;;0.8;;
76548;SDS011;65391;52.068;4.542;2023-04-25T09:02:53;5.5;;;0.8;;
76548;SDS011;65391;52.068;4.542;2023-04-25T09:05:18;5.5;;;0.8;;
76548;SDS011;65391;52.068;4.542;2023-04-25T09:07:43;7.7;;;1;;
76548;SDS011;65391;52.068;4.542;2023-04-25T09:10:08;7.7;;;1;;
76548;SDS011;65391;52.068;4.542;2023-04-25T09:12:33;7.7;;;1;;
76548;SDS011;65391;52.068;4.542;2023-04-25T09:15:04;7.7;;;1;;
76548;SDS011;65391;52.068;4.542;2023-04-25T09:17:23;5.4;;;0.9;;
76548;SDS011;65391;52.068;4.542;2023-04-25T09:19:48;5.4;;;0.9;;
76548;SDS011;65391;52.068;4.542;2023-04-25T09:22:13;5.4;;;0.9;;
76548;SDS011;65391;52.068;4.542;2023-04-25T09:24:39;5.4;;;0.9;;
76548;SDS011;65391;52.068;4.542;2023-04-25T09:27:04;5.6;;;1.1;;
76548;SDS011;65391;52.068;4.542;2023-04-25T09:29:29;5.6;;;1.1;;
76548;SDS011;65391;52.068;4.542;2023-04-25T09:31:57;5.6;;;1.1;;
76548;SDS011;65391;52.068;4.542;2023-04-25T09:34:18;5.6;;;1.1;;
76548;SDS011;65391;52.068;4.542;2023-04-25T09:36:43;9.5;;;1.1;;
76548;SDS011;65391;52.068;4.542;2023-04-25T09:39:12;9.5;;;1.1;;
76548;SDS011;65391;52.068;4.542;2023-04-25T09:41:37;9.5;;;1.1;;
76548;SDS011;65391;52.068;4.542;2023-04-25T09:43:58;9.5;;;1.1;;
76548;SDS011;65391;52.068;4.542;2023-04-25T09:46:23;9.5;;;1.1;;
76548;SDS011;65391;52.068;4.542;2023-04-25T09:48:49;5.9;;;1.1;;
76548;SDS011;65391;52.068;4.542;2023-04-25T09:51:13;5.9;;;1.1;;
76548;SDS011;65391;52.068;4.542;2023-04-25T09:53:39;5.9;;;1.1;;
76548;SDS011;65391;52.068;4.542;2023-04-25T09:56:04;5.9;;;1.1;;
76548;SDS011;65391;52.068;4.542;2023-04-25T09:58:29;5.7;;;1.3;;
76548;SDS011;65391;52.068;4.542;2023-04-25T10:00:53;5.7;;;1.3;;
76548;SDS011;65391;52.068;4.542;2023-04-25T10:03:18;5.7;;;1.3;;
76548;SDS011;65391;52.068;4.542;2023-04-25T10:05:43;5.7;;;1.3;;
76548;SDS011;65391;52.068;4.542;2023-04-25T10:08:08;9.3;;;1.5;;
76548;SDS011;65391;52.068;4.542;2023-04-25T10:10:33;9.3;;;1.5;;
76548;SDS011;65391;52.068;4.542;2023-04-25T10:12:58;9.3;;;1.5;;
76548;SDS011;65391;52.068;4.542;2023-04-25T10:15:24;9.3;;;1.5;;
76548;SDS011;65391;52.068;4.542;2023-04-25T10:17:48;9.1;;;1.5;;
76548;SDS011;65391;52.068;4.542;2023-04-25T10:20:13;9.1;;;1.5;;
76548;SDS011;65391;52.068;4.542;2023-04-25T10:22:41;9.1;;;1.5;;
76548;SDS011;65391;52.068;4.542;2023-04-25T10:25:04;9.1;;;1.5;;
76548;SDS011;65391;52.068;4.542;2023-04-25T10:27:28;5.4;;;1.2;;
76548;SDS011;65391;52.068;4.542;2023-04-25T10:30:00;5.4;;;1.2;;
76548;SDS011;65391;52.068;4.542;2023-04-25T10:32:18;5.4;;;1.2;;
76548;SDS011;65391;52.068;4.542;2023-04-25T10:34:44;5.4;;;1.2;;
76548;SDS011;65391;52.068;4.542;2023-04-25T10:37:09;5.6;;;0.8;;
76548;SDS011;65391;52.068;4.542;2023-04-25T10:39:33;5.6;;;0.8;;
76548;SDS011;65391;52.068;4.542;2023-04-25T10:41:58;5.6;;;0.8;;
76548;SDS011;65391;52.068;4.542;2023-04-25T10:44:26;5.6;;;0.8;;
76548;SDS011;65391;52.068;4.542;2023-04-25T10:46:48;4.1;;;1;;
76548;SDS011;65391;52.068;4.542;2023-04-25T10:49:29;4.1;;;1;;
76548;SDS011;65391;52.068;4.542;2023-04-25T10:51:38;4.1;;;1;;
76548;SDS011;65391;52.068;4.542;2023-04-25T10:54:04;4.1;;;1;;
76548;SDS011;65391;52.068;4.542;2023-04-25T10:56:29;4.1;;;1;;
76548;SDS011;65391;52.068;4.542;2023-04-25T10:59:03;7.2;;;1;;
76548;SDS011;65391;52.068;4.542;2023-04-25T11:01:20;7.2;;;1;;
76548;SDS011;65391;52.068;4.542;2023-04-25T11:03:43;7.2;;;1;;
76548;SDS011;65391;52.068;4.542;2023-04-25T11:06:22;7.2;;;1;;
76548;SDS011;65391;52.068;4.542;2023-04-25T11:08:37;5.5;;;1.4;;
76548;SDS011;65391;52.068;4.542;2023-04-25T11:10:58;5.5;;;1.4;;
76548;SDS011;65391;52.068;4.542;2023-04-25T11:13:28;5.5;;;1.4;;
76548;SDS011;65391;52.068;4.542;2023-04-25T11:15:51;5.5;;;1.4;;
76548;SDS011;65391;52.068;4.542;2023-04-25T11:18:15;5.6;;;1.4;;
76548;SDS011;65391;52.068;4.542;2023-04-25T11:20:38;5.6;;;1.4;;
76548;SDS011;65391;52.068;4.542;2023-04-25T11:23:04;5.6;;;1.4;;
76548;SDS011;65391;52.068;4.542;2023-04-25T11:25:28;5.6;;;1.4;;
76548;SDS011;65391;52.068;4.542;2023-04-25T11:27:54;4.5;;;1.1;;
76548;SDS011;65391;52.068;4.542;2023-04-25T11:30:20;4.5;;;1.1;;
76548;SDS011;65391;52.068;4.542;2023-04-25T11:32:43;4.5;;;1.1;;
76548;SDS011;65391;52.068;4.542;2023-04-25T11:35:08;4.5;;;1.1;;
76548;SDS011;65391;52.068;4.542;2023-04-25T11:37:33;7.2;;;1;;
76548;SDS011;65391;52.068;4.542;2023-04-25T11:39:58;7.2;;;1;;
76548;SDS011;65391;52.068;4.542;2023-04-25T11:42:23;7.2;;;1;;
76548;SDS011;65391;52.068;4.542;2023-04-25T11:44:49;7.2;;;1;;
76548;SDS011;65391;52.068;4.542;2023-04-25T11:47:13;5.1;;;1.8;;
76548;SDS011;65391;52.068;4.542;2023-04-25T11:49:38;5.1;;;1.8;;
76548;SDS011;65391;52.068;4.542;2023-04-25T11:52:05;5.1;;;1.8;;
76548;SDS011;65391;52.068;4.542;2023-04-25T11:54:28;5.1;;;1.8;;
76548;SDS011;65391;52.068;4.542;2023-04-25T11:56:54;3.2;;;0.7;;
76548;SDS011;65391;52.068;4.542;2023-04-25T11:59:22;3.2;;;0.7;;
76548;SDS011;65391;52.068;4.542;2023-04-25T12:01:48;3.2;;;0.7;;
76548;SDS011;65391;52.068;4.542;2023-04-25T12:04:10;3.2;;;0.7;;
76548;SDS011;65391;52.068;4.542;2023-04-25T12:06:33;3.2;;;0.7;;
76548;SDS011;65391;52.068;4.542;2023-04-25T12:09:00;3.8;;;1.3;;
76548;SDS011;65391;52.068;4.542;2023-04-25T12:11:23;3.8;;;1.3;;
76548;SDS011;65391;52.068;4.542;2023-04-25T12:13:51;3.8;;;1.3;;
76548;SDS011;65391;52.068;4.542;2023-04-25T12:16:13;3.8;;;1.3;;
76548;SDS011;65391;52.068;4.542;2023-04-25T12:18:38;6.4;;;0.8;;
76548;SDS011;65391;52.068;4.542;2023-04-25T12:21:04;6.4;;;0.8;;
76548;SDS011;65391;52.068;4.542;2023-04-25T12:23:29;6.4;;;0.8;;
76548;SDS011;65391;52.068;4.542;2023-04-25T12:25:53;6.4;;;0.8;;
76548;SDS011;65391;52.068;4.542;2023-04-25T12:28:19;5.3;;;1.1;;
76548;SDS011;65391;52.068;4.542;2023-04-25T12:31:00;5.3;;;1.1;;
76548;SDS011;65391;52.068;4.542;2023-04-25T12:33:08;5.3;;;1.1;;
76548;SDS011;65391;52.068;4.542;2023-04-25T12:35:33;5.3;;;1.1;;
76548;SDS011;65391;52.068;4.542;2023-04-25T12:37:58;5.4;;;1;;
76548;SDS011;65391;52.068;4.542;2023-04-25T12:40:23;5.4;;;1;;
76548;SDS011;65391;52.068;4.542;2023-04-25T12:42:48;5.4;;;1;;
76548;SDS011;65391;52.068;4.542;2023-04-25T12:45:14;5.4;;;1;;
76548;SDS011;65391;52.068;4.542;2023-04-25T12:47:38;7.1;;;1.5;;
76548;SDS011;65391;52.068;4.542;2023-04-25T12:50:04;7.1;;;1.5;;
76548;SDS011;65391;52.068;4.542;2023-04-25T12:52:29;7.1;;;1.5;;
76548;SDS011;65391;52.068;4.542;2023-04-25T12:54:54;7.1;;;1.5;;
76548;SDS011;65391;52.068;4.542;2023-04-25T12:57:19;5;;;0.8;;
76548;SDS011;65391;52.068;4.542;2023-04-25T12:59:44;5;;;0.8;;
76548;SDS011;65391;52.068;4.542;2023-04-25T13:02:09;5;;;0.8;;
76548;SDS011;65391;52.068;4.542;2023-04-25T13:04:34;5;;;0.8;;
76548;SDS011;65391;52.068;4.542;2023-04-25T13:06:59;5.2;;;0.8;;
76548;SDS011;65391;52.068;4.542;2023-04-25T13:09:24;5.2;;;0.8;;
76548;SDS011;65391;52.068;4.542;2023-04-25T13:11:49;5.2;;;0.8;;
76548;SDS011;65391;52.068;4.542;2023-04-25T13:14:14;5.2;;;0.8;;
76548;SDS011;65391;52.068;4.542;2023-04-25T13:16:39;5.2;;;0.8;;
76548;SDS011;65391;52.068;4.542;2023-04-25T13:19:04;8;;;1.3;;
76548;SDS011;65391;52.068;4.542;2023-04-25T13:21:30;8;;;1.3;;
76548;SDS011;65391;52.068;4.542;2023-04-25T13:23:54;8;;;1.3;;
76548;SDS011;65391;52.068;4.542;2023-04-25T13:26:19;8;;;1.3;;
76548;SDS011;65391;52.068;4.542;2023-04-25T13:28:44;11.3;;;1.3;;
76548;SDS011;65391;52.068;4.542;2023-04-25T13:31:09;11.3;;;1.3;;
76548;SDS011;65391;52.068;4.542;2023-04-25T13:33:34;11.3;;;1.3;;
76548;SDS011;65391;52.068;4.542;2023-04-25T13:36:00;11.3;;;1.3;;
76548;SDS011;65391;52.068;4.542;2023-04-25T13:38:24;5.5;;;1.1;;
76548;SDS011;65391;52.068;4.542;2023-04-25T13:40:49;5.5;;;1.1;;
76548;SDS011;65391;52.068;4.542;2023-04-25T13:43:14;5.5;;;1.1;;
76548;SDS011;65391;52.068;4.542;2023-04-25T13:45:39;5.5;;;1.1;;
76548;SDS011;65391;52.068;4.542;2023-04-25T13:48:04;9.5;;;1.6;;
76548;SDS011;65391;52.068;4.542;2023-04-25T13:50:29;9.5;;;1.6;;
76548;SDS011;65391;52.068;4.542;2023-04-25T13:52:54;9.5;;;1.6;;
76548;SDS011;65391;52.068;4.542;2023-04-25T13:55:19;9.5;;;1.6;;
76548;SDS011;65391;52.068;4.542;2023-04-25T13:57:44;5.6;;;1;;
76548;SDS011;65391;52.068;4.542;2023-04-25T14:00:09;5.6;;;1;;
76548;SDS011;65391;52.068;4.542;2023-04-25T14:02:34;5.6;;;1;;
76548;SDS011;65391;52.068;4.542;2023-04-25T14:04:59;5.6;;;1;;
76548;SDS011;65391;52.068;4.542;2023-04-25T14:07:24;2.9;;;0.7;;
76548;SDS011;65391;52.068;4.542;2023-04-25T14:09:49;2.9;;;0.7;;
76548;SDS011;65391;52.068;4.542;2023-04-25T14:12:16;2.9;;;0.7;;
76548;SDS011;65391;52.068;4.542;2023-04-25T14:14:39;2.9;;;0.7;;
76548;SDS011;65391;52.068;4.542;2023-04-25T14:17:04;5.1;;;1;;
76548;SDS011;65391;52.068;4.542;2023-04-25T14:19:29;5.1;;;1;;
76548;SDS011;65391;52.068;4.542;2023-04-25T14:21:54;5.1;;;1;;
76548;SDS011;65391;52.068;4.542;2023-04-25T14:24:19;5.1;;;1;;
76548;SDS011;65391;52.068;4.542;2023-04-25T14:26:44;5.1;;;1;;
76548;SDS011;65391;52.068;4.542;2023-04-25T14:29:09;5.3;;;0.9;;
76548;SDS011;65391;52.068;4.542;2023-04-25T14:31:34;5.3;;;0.9;;
76548;SDS011;65391;52.068;4.542;2023-04-25T14:33:59;5.3;;;0.9;;
76548;SDS011;65391;52.068;4.542;2023-04-25T14:36:24;5.3;;;0.9;;
76548;SDS011;65391;52.068;4.542;2023-04-25T14:38:49;7.2;;;1.2;;
76548;SDS011;65391;52.068;4.542;2023-04-25T14:41:14;7.2;;;1.2;;
76548;SDS011;65391;52.068;4.542;2023-04-25T14:43:39;7.2;;;1.2;;
76548;SDS011;65391;52.068;4.542;2023-04-25T14:46:04;7.2;;;1.2;;
76548;SDS011;65391;52.068;4.542;2023-04-25T14:48:29;4.5;;;1.6;;
76548;SDS011;65391;52.068;4.542;2023-04-25T14:50:54;4.5;;;1.6;;
76548;SDS011;65391;52.068;4.542;2023-04-25T14:53:19;4.5;;;1.6;;
76548;SDS011;65391;52.068;4.542;2023-04-25T14:55:44;4.5;;;1.6;;
76548;SDS011;65391;52.068;4.542;2023-04-25T14:58:09;5.2;;;1.8;;
76548;SDS011;65391;52.068;4.542;2023-04-25T15:00:34;5.2;;;1.8;;
76548;SDS011;65391;52.068;4.542;2023-04-25T15:02:59;5.2;;;1.8;;